Time;durP1;ratioP1;P1;durP2;ratioP2;P2;SDS_P1;SDS_P2;PMS_P1;PMS_P2;Temp;Humidity;BMP_temperature;BMP_pressure;BME280_temperature;BME280_humidity;BME280_pressure;Samples;Min_cycle;Max_cycle;Signal;HPM_P1;HPM_P2
2023/04/17 00:01:35;;;;;;;33.97;15.27;;;;;;;;;;5035904;28;20025;-82
2023/04/17 00:04:02;;;;;;;21.50;10.35;;;;;;;;;;5018705;28;20079;-81
2023/04/17 00:06:28;;;;;;;29.67;13.07;;;;;;;;;;5026990;28;20022;-81
2023/04/17 00:08:54;;;;;;;28.27;12.88;;;;;;;;;;5036226;28;20018;-81
2023/04/17 00:11:31;;;;;;;34.45;15.07;;;;;;;;;;5036253;28;20052;-81
2023/04/17 00:17:01;;;;;;;34.40;16.38;;;;;;;;;;5035408;28;20020;-81
2023/04/17 00:19:27;;;;;;;33.72;14.80;;;;;;;;;;5036190;28;20025;-81
2023/04/17 00:21:53;;;;;;;32.10;14.27;;;;;;;;;;5035724;28;20476;-81
2023/04/17 00:24:19;;;;;;;28.38;13.80;;;;;;;;;;5035529;28;20029;-81
2023/04/17 00:26:45;;;;;;;29.17;13.70;;;;;;;;;;5018236;28;20384;-81
2023/04/17 00:29:11;;;;;;;33.33;14.65;;;;;;;;;;5015865;28;20472;-81
2023/04/17 00:31:37;;;;;;;32.95;15.25;;;;;;;;;;5019477;28;20028;-81
2023/04/17 00:34:03;;;;;;;31.98;14.10;;;;;;;;;;5024550;28;20034;-81
2023/04/17 00:36:32;;;;;;;33.00;14.70;;;;;;;;;;5015608;28;20037;-81
2023/04/17 00:38:58;;;;;;;31.67;14.52;;;;;;;;;;5013358;28;20061;-81
2023/04/17 00:41:24;;;;;;;27.98;12.57;;;;;;;;;;5015909;28;20105;-81
2023/04/17 00:43:50;;;;;;;33.22;14.30;;;;;;;;;;5026367;28;20037;-81
2023/04/17 00:46:16;;;;;;;27.65;12.75;;;;;;;;;;5035903;28;20136;-81
2023/04/17 00:48:43;;;;;;;20.63;10.55;;;;;;;;;;5035953;28;20025;-81
2023/04/17 00:51:09;;;;;;;25.65;12.00;;;;;;;;;;5033976;28;20125;-81
2023/04/17 00:53:35;;;;;;;24.67;12.27;;;;;;;;;;5035462;28;20061;-81
2023/04/17 00:56:03;;;;;;;29.42;13.68;;;;;;;;;;5050552;28;20369;-81
2023/04/17 00:58:29;;;;;;;26.70;12.57;;;;;;;;;;5035357;28;20143;-81
2023/04/17 01:00:55;;;;;;;31.98;13.38;;;;;;;;;;5034073;28;20106;-81
2023/04/17 01:03:21;;;;;;;31.73;14.35;;;;;;;;;;5035178;28;20053;-81
2023/04/17 01:05:50;;;;;;;27.55;12.52;;;;;;;;;;5034965;28;20455;-80
2023/04/17 01:08:16;;;;;;;25.95;12.43;;;;;;;;;;5035334;28;20028;-81
2023/04/17 01:10:42;;;;;;;31.23;13.32;;;;;;;;;;5034096;28;20581;-81
2023/04/17 01:13:08;;;;;;;26.20;13.00;;;;;;;;;;5027661;28;20034;-81
2023/04/17 01:15:35;;;;;;;28.30;15.43;;;;;;;;;;5023725;28;20033;-81
2023/04/17 01:18:01;;;;;;;33.33;14.18;;;;;;;;;;5026794;28;20053;-81
2023/04/17 01:20:30;;;;;;;29.00;13.25;;;;;;;;;;5050198;28;20029;-81
2023/04/17 01:22:59;;;;;;;26.00;12.88;;;;;;;;;;5050143;28;20025;-81
2023/04/17 01:25:26;;;;;;;26.67;12.00;;;;;;;;;;5050183;28;20032;-81
2023/04/17 01:27:52;;;;;;;31.00;14.13;;;;;;;;;;5034447;28;20071;-81
2023/04/17 01:30:18;;;;;;;29.63;14.05;;;;;;;;;;5015103;28;20080;-81
2023/04/17 01:32:45;;;;;;;29.13;12.98;;;;;;;;;;5021556;28;20530;-81
2023/04/17 01:35:11;;;;;;;34.78;15.05;;;;;;;;;;5020830;28;20034;-81
2023/04/17 01:37:37;;;;;;;27.52;13.60;;;;;;;;;;5030789;28;20040;-81
2023/04/17 01:40:09;;;;;;;18.67;8.93;;;;;;;;;;5033165;28;20053;-81
2023/04/17 01:42:35;;;;;;;35.53;15.13;;;;;;;;;;5025344;28;20033;-81
2023/04/17 01:45:01;;;;;;;36.80;15.93;;;;;;;;;;5034688;28;20048;-81
2023/04/17 01:47:38;;;;;;;15.30;8.80;;;;;;;;;;5034185;28;20045;-81
2023/04/17 01:50:04;;;;;;;28.15;13.30;;;;;;;;;;5026287;28;20037;-81
2023/04/17 01:52:30;;;;;;;26.55;11.50;;;;;;;;;;5034249;28;20022;-81
2023/04/17 01:54:56;;;;;;;26.85;13.40;;;;;;;;;;5024495;28;20033;-81
2023/04/17 01:57:22;;;;;;;29.33;12.80;;;;;;;;;;5023493;28;20426;-81
2023/04/17 01:59:48;;;;;;;25.80;13.00;;;;;;;;;;5025841;28;20037;-81
2023/04/17 02:02:14;;;;;;;26.77;13.27;;;;;;;;;;5018002;28;20112;-81
2023/04/17 02:04:40;;;;;;;28.10;11.77;;;;;;;;;;5033849;28;20464;-81
2023/04/17 02:07:06;;;;;;;25.48;11.35;;;;;;;;;;5049207;28;20030;-81
2023/04/17 02:09:32;;;;;;;27.40;12.68;;;;;;;;;;5024575;28;20030;-81
2023/04/17 02:11:58;;;;;;;22.90;12.38;;;;;;;;;;5014037;28;20104;-81
2023/04/17 02:14:24;;;;;;;21.90;11.48;;;;;;;;;;5023088;28;20387;-81
2023/04/17 02:16:52;;;;;;;24.15;11.18;;;;;;;;;;5033690;28;20033;-81
2023/04/17 02:19:18;;;;;;;21.55;11.55;;;;;;;;;;5034133;28;20021;-81
2023/04/17 02:21:44;;;;;;;24.42;11.32;;;;;;;;;;5033638;28;20105;-81
2023/04/17 02:24:10;;;;;;;22.27;12.05;;;;;;;;;;5032193;28;20029;-81
2023/04/17 02:26:36;;;;;;;25.10;11.52;;;;;;;;;;5033622;28;20025;-81
2023/04/17 02:29:09;;;;;;;29.63;13.27;;;;;;;;;;5033474;28;20034;-81
2023/04/17 02:31:35;;;;;;;26.35;10.85;;;;;;;;;;5033665;28;20136;-81
2023/04/17 02:34:02;;;;;;;23.52;10.32;;;;;;;;;;5032564;28;20361;-81
2023/04/17 02:36:28;;;;;;;25.45;12.05;;;;;;;;;;5029639;28;20018;-81
2023/04/17 02:38:54;;;;;;;20.85;10.85;;;;;;;;;;5013312;28;20042;-81
2023/04/17 02:41:20;;;;;;;23.85;11.55;;;;;;;;;;5017057;28;20472;-81
2023/04/17 02:43:46;;;;;;;24.77;11.40;;;;;;;;;;5023815;28;20026;-81
2023/04/17 02:46:12;;;;;;;25.98;12.50;;;;;;;;;;5017937;28;20432;-81
2023/04/17 02:48:38;;;;;;;29.30;10.73;;;;;;;;;;5037562;28;20029;-81
2023/04/17 02:51:04;;;;;;;28.77;13.23;;;;;;;;;;5037477;28;20025;-81
2023/04/17 02:53:30;;;;;;;27.88;13.38;;;;;;;;;;5037370;28;20511;-81
2023/04/17 02:55:57;;;;;;;27.45;13.93;;;;;;;;;;5037360;28;20018;-81
2023/04/17 02:58:23;;;;;;;23.50;11.25;;;;;;;;;;5037336;28;20039;-81
2023/04/17 03:00:49;;;;;;;28.17;10.65;;;;;;;;;;5037107;28;20025;-81
2023/04/17 03:03:15;;;;;;;28.95;10.82;;;;;;;;;;5035761;28;20029;-81
2023/04/17 03:05:41;;;;;;;37.58;13.10;;;;;;;;;;5036869;28;20063;-81
2023/04/17 03:08:07;;;;;;;40.10;11.93;;;;;;;;;;5036953;28;20040;-81
2023/04/17 03:10:33;;;;;;;29.80;10.70;;;;;;;;;;5036809;28;20076;-81
2023/04/17 03:12:59;;;;;;;41.90;12.10;;;;;;;;;;5037193;28;20053;-81
2023/04/17 03:15:25;;;;;;;33.13;11.40;;;;;;;;;;5036946;28;20105;-81
2023/04/17 03:17:51;;;;;;;34.00;12.68;;;;;;;;;;5037310;28;20631;-81
2023/04/17 03:20:17;;;;;;;37.17;12.63;;;;;;;;;;5036543;28;20049;-81
2023/04/17 03:22:44;;;;;;;29.05;12.77;;;;;;;;;;5036744;28;20631;-81
2023/04/17 03:25:10;;;;;;;32.83;11.45;;;;;;;;;;5036783;28;20032;-81
2023/04/17 03:27:37;;;;;;;28.83;11.27;;;;;;;;;;5035597;28;20029;-81
2023/04/17 03:30:03;;;;;;;36.65;11.40;;;;;;;;;;5036678;28;20025;-81
2023/04/17 03:32:36;;;;;;;43.83;11.63;;;;;;;;;;5035739;28;20049;-81
2023/04/17 03:35:02;;;;;;;35.25;11.65;;;;;;;;;;5036823;28;20024;-81
2023/04/17 03:37:30;;;;;;;47.60;11.32;;;;;;;;;;5035214;28;20033;-81
2023/04/17 03:39:56;;;;;;;26.33;10.57;;;;;;;;;;5036144;28;20423;-81
2023/04/17 03:42:22;;;;;;;37.95;11.80;;;;;;;;;;5035041;28;20100;-81
2023/04/17 03:44:48;;;;;;;46.33;10.35;;;;;;;;;;5036226;28;20392;-81
2023/04/17 03:47:14;;;;;;;51.20;10.60;;;;;;;;;;5036392;28;20029;-80
2023/04/17 03:49:40;;;;;;;27.98;10.30;;;;;;;;;;5025113;28;20041;-81
2023/04/17 03:52:06;;;;;;;37.28;12.13;;;;;;;;;;5015076;28;20031;-81
2023/04/17 03:54:34;;;;;;;59.88;13.02;;;;;;;;;;5035306;28;20030;-81
2023/04/17 03:57:11;;;;;;;43.28;11.90;;;;;;;;;;5044070;28;20453;-81
2023/04/17 03:59:37;;;;;;;57.97;12.15;;;;;;;;;;5045993;28;20075;-81
2023/04/17 04:02:03;;;;;;;29.20;11.77;;;;;;;;;;5044138;28;20038;-81
2023/04/17 04:04:29;;;;;;;40.33;12.13;;;;;;;;;;5046699;28;20049;-81
2023/04/17 04:06:56;;;;;;;30.20;10.93;;;;;;;;;;5031762;28;20052;-81
2023/04/17 04:09:23;;;;;;;28.58;10.65;;;;;;;;;;5034160;28;20357;-81
2023/04/17 04:11:49;;;;;;;45.08;12.23;;;;;;;;;;5038886;28;20037;-81
2023/04/17 04:14:15;;;;;;;42.00;10.50;;;;;;;;;;5039174;28;20029;-81
2023/04/17 04:16:41;;;;;;;48.85;12.13;;;;;;;;;;5039427;28;20151;-81
2023/04/17 04:19:07;;;;;;;41.25;11.10;;;;;;;;;;5039255;28;20373;-81
2023/04/17 04:21:34;;;;;;;47.08;12.02;;;;;;;;;;5038472;28;20029;-81
2023/04/17 04:24:01;;;;;;;33.20;9.90;;;;;;;;;;5037200;28;20030;-80
2023/04/17 04:26:27;;;;;;;21.35;9.32;;;;;;;;;;5038580;28;20472;-81
2023/04/17 04:28:53;;;;;;;23.60;9.20;;;;;;;;;;5038266;28;20053;-81
2023/04/17 04:31:19;;;;;;;29.67;9.32;;;;;;;;;;5022925;28;20060;-81
2023/04/17 04:33:45;;;;;;;21.85;10.57;;;;;;;;;;5026599;28;20025;-80
2023/04/17 04:36:12;;;;;;;41.10;11.23;;;;;;;;;;5036484;28;20722;-80
2023/04/17 04:38:41;;;;;;;16.77;6.45;;;;;;;;;;5022743;28;20022;-80
2023/04/17 04:41:19;;;;;;;25.80;10.10;;;;;;;;;;5031313;28;20045;-81
2023/04/17 04:43:45;;;;;;;24.00;10.45;;;;;;;;;;5028049;28;20068;-81
2023/04/17 04:46:11;;;;;;;34.25;10.63;;;;;;;;;;5035919;28;20491;-81
2023/04/17 04:48:37;;;;;;;27.38;10.82;;;;;;;;;;5036459;28;20028;-82
2023/04/17 04:51:03;;;;;;;34.67;11.05;;;;;;;;;;5035876;28;20079;-80
2023/04/17 04:53:29;;;;;;;30.38;11.07;;;;;;;;;;5037055;28;20036;-81
2023/04/17 04:55:55;;;;;;;13.70;7.10;;;;;;;;;;5036968;28;20029;-80
2023/04/17 04:58:21;;;;;;;21.05;8.43;;;;;;;;;;5028535;28;20040;-81
2023/04/17 05:00:47;;;;;;;25.52;9.40;;;;;;;;;;5035800;28;20097;-81
2023/04/17 05:03:13;;;;;;;26.73;9.40;;;;;;;;;;5035511;28;20113;-80
2023/04/17 05:05:40;;;;;;;25.40;9.77;;;;;;;;;;5033562;28;20040;-80
2023/04/17 05:08:06;;;;;;;34.85;10.50;;;;;;;;;;5036151;28;20025;-80
2023/04/17 05:10:32;;;;;;;29.83;9.80;;;;;;;;;;5035354;28;20033;-80
2023/04/17 05:12:58;;;;;;;36.20;11.48;;;;;;;;;;5034945;28;20030;-80
2023/04/17 05:15:25;;;;;;;12.32;7.35;;;;;;;;;;5032353;28;20535;-79
2023/04/17 05:17:51;;;;;;;22.90;8.27;;;;;;;;;;5034555;28;20068;-80
2023/04/17 05:20:17;;;;;;;22.35;9.15;;;;;;;;;;5034911;28;20052;-80
2023/04/17 05:22:57;;;;;;;19.55;9.30;;;;;;;;;;5034711;28;20038;-80
2023/04/17 05:25:24;;;;;;;19.80;7.03;;;;;;;;;;5035631;28;20029;-80
2023/04/17 05:27:51;;;;;;;18.75;8.57;;;;;;;;;;5036958;28;20105;-80
2023/04/17 05:30:17;;;;;;;28.90;8.70;;;;;;;;;;5035187;28;20079;-80
2023/04/17 05:32:43;;;;;;;33.25;11.10;;;;;;;;;;5036584;28;20033;-80
2023/04/17 05:35:09;;;;;;;20.60;7.90;;;;;;;;;;5034968;28;20040;-80
2023/04/17 05:37:35;;;;;;;17.88;8.40;;;;;;;;;;5035467;28;20022;-80
2023/04/17 05:40:01;;;;;;;27.83;10.90;;;;;;;;;;5034095;28;20103;-80
2023/04/17 05:42:27;;;;;;;20.63;8.45;;;;;;;;;;5034624;28;20476;-80
2023/04/17 05:44:53;;;;;;;29.77;10.43;;;;;;;;;;5035953;28;20030;-80
2023/04/17 05:47:19;;;;;;;29.95;10.85;;;;;;;;;;5034320;28;20035;-80
2023/04/17 05:49:47;;;;;;;25.05;10.52;;;;;;;;;;5035920;28;20048;-80
2023/04/17 05:52:13;;;;;;;31.08;9.63;;;;;;;;;;5028403;28;20022;-80
2023/04/17 05:54:39;;;;;;;21.73;10.85;;;;;;;;;;5018126;28;20037;-80
2023/04/17 05:57:05;;;;;;;14.73;6.50;;;;;;;;;;5035920;28;20017;-80
2023/04/17 05:59:31;;;;;;;25.15;10.13;;;;;;;;;;5034033;28;20033;-80
2023/04/17 06:01:58;;;;;;;32.03;10.32;;;;;;;;;;5035903;28;20026;-81
2023/04/17 06:04:25;;;;;;;21.92;9.85;;;;;;;;;;5033653;28;20109;-80
2023/04/17 06:06:51;;;;;;;15.95;7.07;;;;;;;;;;5035516;28;20041;-80
2023/04/17 06:09:48;;;;;;;40.08;11.90;;;;;;;;;;5035800;28;20135;-81
2023/04/17 06:15:25;;;;;;;21.10;7.80;;;;;;;;;;5015679;28;20041;-81
2023/04/17 06:17:51;;;;;;;21.95;7.80;;;;;;;;;;5033814;28;20064;-81
2023/04/17 06:20:17;;;;;;;17.58;8.75;;;;;;;;;;5034904;28;20063;-80
2023/04/17 06:22:49;;;;;;;29.27;10.90;;;;;;;;;;5039157;28;20033;-80
2023/04/17 06:25:15;;;;;;;28.02;10.75;;;;;;;;;;5036561;28;20033;-80
2023/04/17 06:27:41;;;;;;;19.42;9.27;;;;;;;;;;5036251;28;20029;-80
2023/04/17 06:30:08;;;;;;;21.10;9.35;;;;;;;;;;5037526;28;20406;-81
2023/04/17 06:32:34;;;;;;;21.75;9.90;;;;;;;;;;5037647;28;20071;-80
2023/04/17 06:35:00;;;;;;;28.80;11.40;;;;;;;;;;5038381;28;20086;-80
2023/04/17 06:37:26;;;;;;;22.55;10.02;;;;;;;;;;5037786;28;20105;-80
2023/04/17 06:39:52;;;;;;;27.38;11.40;;;;;;;;;;5036345;28;20147;-80
2023/04/17 06:42:19;;;;;;;20.17;8.85;;;;;;;;;;5024535;28;20029;-80
2023/04/17 06:44:45;;;;;;;21.98;9.75;;;;;;;;;;5036170;28;20472;-80
2023/04/17 06:47:11;;;;;;;29.70;9.85;;;;;;;;;;5037465;28;20033;-80
2023/04/17 06:49:37;;;;;;;22.85;9.63;;;;;;;;;;5036275;28;20021;-80
2023/04/17 06:52:03;;;;;;;27.15;11.43;;;;;;;;;;5019033;28;20026;-80
2023/04/17 06:54:30;;;;;;;26.88;11.30;;;;;;;;;;5030611;28;20037;-80
2023/04/17 06:56:56;;;;;;;24.23;11.75;;;;;;;;;;5037423;28;20072;-81
2023/04/17 06:59:22;;;;;;;25.63;11.52;;;;;;;;;;5037005;28;20029;-81
2023/04/17 07:01:48;;;;;;;20.85;9.85;;;;;;;;;;5037106;28;20033;-81
2023/04/17 07:04:16;;;;;;;24.70;10.93;;;;;;;;;;5036760;28;20518;-81
2023/04/17 07:06:42;;;;;;;26.77;11.73;;;;;;;;;;5036430;28;20030;-81
2023/04/17 07:09:08;;;;;;;20.88;9.52;;;;;;;;;;5056430;28;20032;-81
2023/04/17 07:11:34;;;;;;;26.50;11.52;;;;;;;;;;5048081;28;20407;-81
2023/04/17 07:14:00;;;;;;;23.92;10.90;;;;;;;;;;5016762;28;20036;-81
2023/04/17 07:16:26;;;;;;;17.58;8.02;;;;;;;;;;5016770;28;20044;-81
2023/04/17 07:18:52;;;;;;;26.27;11.13;;;;;;;;;;5023701;28;20391;-81
2023/04/17 07:21:18;;;;;;;24.40;10.35;;;;;;;;;;5035623;28;20103;-81
2023/04/17 07:23:44;;;;;;;24.20;11.00;;;;;;;;;;5023514;28;20022;-81
2023/04/17 07:26:11;;;;;;;23.70;11.63;;;;;;;;;;5033172;28;20036;-81
2023/04/17 07:28:37;;;;;;;27.08;12.48;;;;;;;;;;5036974;28;20025;-81
2023/04/17 07:31:07;;;;;;;27.63;12.27;;;;;;;;;;5034978;28;20365;-81
2023/04/17 07:36:40;;;;;;;33.13;15.10;;;;;;;;;;5036529;28;20079;-81
2023/04/17 07:39:06;;;;;;;26.02;12.15;;;;;;;;;;5034886;28;20068;-81
2023/04/17 07:41:32;;;;;;;26.00;12.38;;;;;;;;;;5036146;28;20488;-81
2023/04/17 07:44:02;;;;;;;23.75;11.02;;;;;;;;;;5036048;28;20029;-81
2023/04/17 07:46:28;;;;;;;24.65;12.95;;;;;;;;;;5035956;28;20052;-81
2023/04/17 07:48:54;;;;;;;23.92;11.38;;;;;;;;;;5036090;28;20026;-80
2023/04/17 07:51:51;;;;;;;24.80;12.77;;;;;;;;;;5034748;28;20026;-80
2023/04/17 07:54:17;;;;;;;28.17;14.00;;;;;;;;;;5035847;28;20040;-81
2023/04/17 07:56:45;;;;;;;29.85;15.23;;;;;;;;;;5035639;28;20112;-81
2023/04/17 07:59:11;;;;;;;27.88;14.38;;;;;;;;;;5021859;28;20033;-81
2023/04/17 08:01:37;;;;;;;22.42;11.35;;;;;;;;;;5017431;28;20157;-81
2023/04/17 08:04:03;;;;;;;27.08;12.80;;;;;;;;;;5035538;28;20446;-81
2023/04/17 08:06:30;;;;;;;28.75;13.32;;;;;;;;;;5035605;28;20037;-81
2023/04/17 08:08:56;;;;;;;13.70;7.47;;;;;;;;;;5035955;28;20021;-81
2023/04/17 08:11:22;;;;;;;22.58;11.85;;;;;;;;;;5035721;28;20105;-81
2023/04/17 08:13:48;;;;;;;26.25;12.30;;;;;;;;;;5035782;28;20104;-81
2023/04/17 08:16:14;;;;;;;22.00;10.82;;;;;;;;;;5034803;28;20021;-81
2023/04/17 08:18:40;;;;;;;22.27;10.90;;;;;;;;;;5036139;28;20384;-81
2023/04/17 08:21:07;;;;;;;27.08;13.80;;;;;;;;;;5035948;28;20087;-81
2023/04/17 08:23:33;;;;;;;22.60;11.63;;;;;;;;;;5035292;28;20033;-81
2023/04/17 08:25:59;;;;;;;30.02;15.23;;;;;;;;;;5035121;28;20037;-81
2023/04/17 08:28:25;;;;;;;23.42;11.43;;;;;;;;;;5035527;28;20029;-81
2023/04/17 08:33:49;;;;;;;27.98;13.90;;;;;;;;;;5035444;28;20037;-80
2023/04/17 08:36:15;;;;;;;20.70;9.70;;;;;;;;;;5035115;28;20026;-80
2023/04/17 08:38:43;;;;;;;24.42;11.18;;;;;;;;;;5034943;28;20411;-80
2023/04/17 08:41:12;;;;;;;17.20;9.43;;;;;;;;;;5034580;28;20570;-81
2023/04/17 08:43:39;;;;;;;28.52;13.27;;;;;;;;;;5032908;28;20025;-81
2023/04/17 08:46:06;;;;;;;21.58;10.45;;;;;;;;;;5023680;28;20033;-81
2023/04/17 08:48:32;;;;;;;24.30;13.20;;;;;;;;;;5015450;28;20034;-81
2023/04/17 08:50:58;;;;;;;21.63;11.38;;;;;;;;;;5015231;28;20033;-81
2023/04/17 08:53:24;;;;;;;25.10;12.88;;;;;;;;;;5015344;28;20097;-81
2023/04/17 08:55:50;;;;;;;24.92;12.15;;;;;;;;;;5022159;28;20064;-81
2023/04/17 08:58:16;;;;;;;23.48;12.27;;;;;;;;;;5034761;28;20060;-81
2023/04/17 09:00:43;;;;;;;28.13;13.88;;;;;;;;;;5034817;28;20072;-81
2023/04/17 09:03:10;;;;;;;26.23;13.75;;;;;;;;;;5034621;28;20025;-81
2023/04/17 09:05:37;;;;;;;25.70;13.93;;;;;;;;;;5033325;28;20030;-80
2023/04/17 09:08:14;;;;;;;23.60;13.27;;;;;;;;;;5034784;28;20036;-81
2023/04/17 09:10:44;;;;;;;27.30;14.52;;;;;;;;;;5033534;28;20026;-81
2023/04/17 09:13:13;;;;;;;24.70;12.95;;;;;;;;;;5033209;28;20503;-80
2023/04/17 09:15:39;;;;;;;25.27;13.57;;;;;;;;;;5034508;28;20473;-79
2023/04/17 09:18:20;;;;;;;22.73;12.18;;;;;;;;;;5034361;28;20025;-80
2023/04/17 09:20:52;;;;;;;21.17;9.68;;;;;;;;;;5034224;28;20034;-80
2023/04/17 09:23:18;;;;;;;19.45;10.52;;;;;;;;;;5034270;28;20018;-80
2023/04/17 09:25:45;;;;;;;24.92;14.05;;;;;;;;;;5034449;28;20036;-81
2023/04/17 09:28:13;;;;;;;18.13;8.80;;;;;;;;;;5034400;28;20156;-81
2023/04/17 09:30:39;;;;;;;20.58;11.30;;;;;;;;;;5020765;28;20596;-82
2023/04/17 09:33:07;;;;;;;17.02;9.43;;;;;;;;;;5014663;28;20053;-81
2023/04/17 09:35:33;;;;;;;25.67;13.32;;;;;;;;;;5033295;28;20025;-82
2023/04/17 09:37:59;;;;;;;14.98;7.82;;;;;;;;;;5034212;28;20112;-81
2023/04/17 09:40:27;;;;;;;23.77;11.15;;;;;;;;;;5032834;28;20088;-81
2023/04/17 09:43:06;;;;;;;19.70;10.60;;;;;;;;;;5034014;28;20353;-81
2023/04/17 09:45:35;;;;;;;21.67;11.60;;;;;;;;;;5034134;28;20103;-81
2023/04/17 09:48:09;;;;;;;17.50;10.18;;;;;;;;;;5034160;28;20025;-81
2023/04/17 09:50:35;;;;;;;24.25;12.45;;;;;;;;;;5022814;28;20022;-81
2023/04/17 09:53:03;;;;;;;18.98;10.63;;;;;;;;;;5030844;28;20018;-81
2023/04/17 09:55:30;;;;;;;21.75;12.13;;;;;;;;;;5034160;28;20026;-81
2023/04/17 09:57:57;;;;;;;25.15;13.38;;;;;;;;;;5025220;28;20021;-82
2023/04/17 10:00:25;;;;;;;26.60;13.80;;;;;;;;;;5023282;28;20034;-82
2023/04/17 10:02:52;;;;;;;22.77;10.82;;;;;;;;;;5025593;28;20017;-82
2023/04/17 10:05:21;;;;;;;24.88;14.05;;;;;;;;;;5021736;28;20075;-82
2023/04/17 10:07:49;;;;;;;24.48;12.95;;;;;;;;;;5025437;28;20115;-82
2023/04/17 10:10:30;;;;;;;27.25;13.55;;;;;;;;;;5020883;28;20026;-82
2023/04/17 10:12:57;;;;;;;25.48;13.32;;;;;;;;;;5026385;28;20049;-82
2023/04/17 10:15:24;;;;;;;26.77;14.70;;;;;;;;;;5029847;28;20442;-82
2023/04/17 10:17:51;;;;;;;25.15;14.10;;;;;;;;;;5027509;28;20039;-82
2023/04/17 10:20:18;;;;;;;24.38;13.18;;;;;;;;;;5025036;28;20528;-82
2023/04/17 10:22:44;;;;;;;18.63;10.38;;;;;;;;;;5024943;28;20384;-82
2023/04/17 10:25:11;;;;;;;17.52;9.35;;;;;;;;;;5026069;28;20108;-82
2023/04/17 10:27:40;;;;;;;11.77;7.65;;;;;;;;;;5027857;28;20025;-82
2023/04/17 10:30:11;;;;;;;15.38;7.68;;;;;;;;;;5028926;28;20026;-82
2023/04/17 10:32:38;;;;;;;14.45;8.98;;;;;;;;;;5027136;28;20034;-82
2023/04/17 10:35:16;;;;;;;15.90;9.38;;;;;;;;;;5025601;28;20032;-82
2023/04/17 10:37:51;;;;;;;14.07;8.45;;;;;;;;;;5026534;28;20034;-82
2023/04/17 10:40:20;;;;;;;18.27;10.95;;;;;;;;;;5023556;28;20588;-82
2023/04/17 10:43:02;;;;;;;13.00;8.50;;;;;;;;;;5024485;28;20057;-82
2023/04/17 10:45:48;;;;;;;16.02;10.02;;;;;;;;;;5024956;28;20124;-82
2023/04/17 10:48:21;;;;;;;13.68;7.53;;;;;;;;;;5021302;28;20061;-82
2023/04/17 10:50:47;;;;;;;15.02;9.98;;;;;;;;;;5029137;28;20099;-83
2023/04/17 10:53:31;;;;;;;17.08;9.80;;;;;;;;;;5030525;28;20153;-81
2023/04/17 10:55:57;;;;;;;15.32;9.00;;;;;;;;;;5030474;28;20040;-82
2023/04/17 10:58:23;;;;;;;16.48;8.63;;;;;;;;;;5029182;28;20038;-82
2023/04/17 11:00:50;;;;;;;19.17;11.18;;;;;;;;;;5032428;28;20471;-82
2023/04/17 11:03:16;;;;;;;14.05;8.52;;;;;;;;;;5023221;28;20033;-82
2023/04/17 11:05:46;;;;;;;15.23;10.00;;;;;;;;;;5022938;28;20276;-82
2023/04/17 11:08:12;;;;;;;17.08;9.50;;;;;;;;;;5031400;28;20056;-82
2023/04/17 11:10:38;;;;;;;13.27;8.45;;;;;;;;;;5033628;28;20030;-83
2023/04/17 11:13:04;;;;;;;14.27;8.63;;;;;;;;;;5034955;28;20093;-82
2023/04/17 11:15:30;;;;;;;15.88;10.55;;;;;;;;;;5026443;28;20164;-82
2023/04/17 11:17:57;;;;;;;14.43;9.30;;;;;;;;;;5032823;28;20518;-82
2023/04/17 11:20:25;;;;;;;10.20;6.13;;;;;;;;;;5034363;28;20029;-83
2023/04/17 11:22:51;;;;;;;13.82;9.10;;;;;;;;;;5028148;28;20065;-82
2023/04/17 11:25:21;;;;;;;13.23;8.88;;;;;;;;;;5036342;28;20534;-82
2023/04/17 11:28:05;;;;;;;14.55;7.80;;;;;;;;;;5037026;28;20538;-82
2023/04/17 11:30:33;;;;;;;14.75;8.57;;;;;;;;;;5027542;28;20079;-83
2023/04/17 11:33:00;;;;;;;13.90;8.82;;;;;;;;;;5031715;28;20109;-83
2023/04/17 11:35:33;;;;;;;13.32;7.10;;;;;;;;;;5027307;28;20037;-82
2023/04/17 11:38:22;;;;;;;13.30;9.38;;;;;;;;;;5036857;28;20029;-82
2023/04/17 11:40:54;;;;;;;13.80;8.70;;;;;;;;;;5038752;28;20049;-82
2023/04/17 11:43:21;;;;;;;10.75;7.70;;;;;;;;;;5042297;28;20025;-82
2023/04/17 11:45:50;;;;;;;16.67;10.02;;;;;;;;;;5035226;28;20034;-82
2023/04/17 11:48:18;;;;;;;12.27;8.03;;;;;;;;;;5033929;28;20025;-82
2023/04/17 11:50:44;;;;;;;11.40;6.65;;;;;;;;;;5032738;28;20055;-82
2023/04/17 11:53:14;;;;;;;12.07;8.15;;;;;;;;;;5028795;28;20029;-82
2023/04/17 11:55:40;;;;;;;15.55;9.68;;;;;;;;;;5036707;28;20033;-82
2023/04/17 11:58:07;;;;;;;17.48;10.32;;;;;;;;;;5033451;28;20021;-82
2023/04/17 12:00:34;;;;;;;14.23;9.40;;;;;;;;;;5022971;28;20088;-82
2023/04/17 12:03:02;;;;;;;14.45;7.35;;;;;;;;;;5030263;28;20018;-82
2023/04/17 12:05:29;;;;;;;15.60;9.30;;;;;;;;;;5032781;28;20040;-82
2023/04/17 12:08:13;;;;;;;11.85;7.20;;;;;;;;;;5034466;28;20029;-82
2023/04/17 12:10:40;;;;;;;10.32;7.32;;;;;;;;;;5027746;28;20030;-82
2023/04/17 12:13:07;;;;;;;13.60;8.75;;;;;;;;;;5034925;28;20523;-82
2023/04/17 12:15:34;;;;;;;14.77;10.00;;;;;;;;;;5030953;28;20029;-82
2023/04/17 12:18:04;;;;;;;13.88;8.85;;;;;;;;;;5022977;28;20262;-82
2023/04/17 12:20:30;;;;;;;12.98;9.43;;;;;;;;;;5020330;28;20024;-82
2023/04/17 12:22:56;;;;;;;12.68;8.30;;;;;;;;;;5028512;28;20026;-82
2023/04/17 12:25:22;;;;;;;13.57;8.10;;;;;;;;;;5034494;28;20041;-82
2023/04/17 12:27:48;;;;;;;16.98;10.60;;;;;;;;;;5035258;28;20065;-82
2023/04/17 12:30:14;;;;;;;16.83;10.25;;;;;;;;;;5033334;28;20053;-82
2023/04/17 12:32:41;;;;;;;15.45;10.25;;;;;;;;;;5027135;28;20024;-82
2023/04/17 12:35:07;;;;;;;14.43;9.50;;;;;;;;;;5034135;28;20468;-82
2023/04/17 12:37:33;;;;;;;11.48;8.00;;;;;;;;;;5033830;28;20022;-82
2023/04/17 12:39:59;;;;;;;20.20;10.65;;;;;;;;;;5032096;28;20088;-82
2023/04/17 12:42:25;;;;;;;19.17;10.30;;;;;;;;;;5031933;28;20037;-82
2023/04/17 12:44:51;;;;;;;17.35;10.95;;;;;;;;;;5032923;28;20029;-82
2023/04/17 12:47:17;;;;;;;14.25;8.68;;;;;;;;;;5032630;28;20068;-82
2023/04/17 12:49:43;;;;;;;16.25;10.07;;;;;;;;;;5032842;28;20112;-82
2023/04/17 12:52:10;;;;;;;13.95;8.85;;;;;;;;;;5024972;28;20397;-82
2023/04/17 12:54:36;;;;;;;12.57;9.10;;;;;;;;;;5031518;28;20113;-82
2023/04/17 12:57:02;;;;;;;16.58;10.43;;;;;;;;;;5032149;28;20026;-82
2023/04/17 12:59:28;;;;;;;12.18;8.73;;;;;;;;;;5037989;28;20028;-82
2023/04/17 13:01:54;;;;;;;19.17;11.85;;;;;;;;;;5036656;28;20044;-82
2023/04/17 13:04:20;;;;;;;18.80;13.15;;;;;;;;;;5029369;28;20246;-82
2023/04/17 13:06:46;;;;;;;15.32;9.90;;;;;;;;;;5033428;28;20385;-82
2023/04/17 13:09:12;;;;;;;17.52;10.23;;;;;;;;;;5033786;28;20029;-82
2023/04/17 13:11:38;;;;;;;13.13;9.13;;;;;;;;;;5037386;28;20032;-82
2023/04/17 13:14:04;;;;;;;14.48;9.38;;;;;;;;;;5030953;28;20547;-82
2023/04/17 13:16:30;;;;;;;14.52;8.60;;;;;;;;;;5035775;28;20037;-83
2023/04/17 13:18:56;;;;;;;20.40;13.23;;;;;;;;;;5029444;28;20028;-82
2023/04/17 13:21:22;;;;;;;18.48;11.70;;;;;;;;;;5036571;28;20029;-82
2023/04/17 13:23:48;;;;;;;18.45;10.45;;;;;;;;;;5036051;28;20030;-82
2023/04/17 13:26:14;;;;;;;18.70;12.13;;;;;;;;;;5028926;28;20034;-83
2023/04/17 13:28:40;;;;;;;11.57;8.40;;;;;;;;;;5025371;28;20721;-84
2023/04/17 13:31:06;;;;;;;22.33;14.18;;;;;;;;;;5031789;28;20030;-84
2023/04/17 13:33:32;;;;;;;21.70;13.52;;;;;;;;;;5022293;28;20524;-84
2023/04/17 13:35:58;;;;;;;16.98;12.48;;;;;;;;;;5031824;28;20033;-84
2023/04/17 13:38:24;;;;;;;18.73;11.73;;;;;;;;;;5036739;28;20496;-84
2023/04/17 13:40:50;;;;;;;19.73;12.63;;;;;;;;;;5026618;28;20141;-84
2023/04/17 13:43:16;;;;;;;15.68;11.57;;;;;;;;;;5014316;28;20057;-84
2023/04/17 13:45:42;;;;;;;17.38;13.13;;;;;;;;;;5016622;28;20034;-83
2023/04/17 13:48:08;;;;;;;19.67;12.27;;;;;;;;;;5036267;28;20060;-84
2023/04/17 13:50:34;;;;;;;16.00;10.25;;;;;;;;;;5027217;28;20037;-83
2023/04/17 13:53:00;;;;;;;21.55;11.25;;;;;;;;;;5018139;28;20026;-83
2023/04/17 13:55:27;;;;;;;12.25;8.77;;;;;;;;;;5030895;28;20033;-84
2023/04/17 13:57:53;;;;;;;19.63;12.50;;;;;;;;;;5036471;28;20096;-84
2023/04/17 14:00:20;;;;;;;20.50;15.18;;;;;;;;;;5033934;28;20080;-83
2023/04/17 14:02:46;;;;;;;17.92;11.90;;;;;;;;;;5031084;28;20017;-83
2023/04/17 14:05:12;;;;;;;19.90;12.40;;;;;;;;;;5031704;28;20033;-83
2023/04/17 14:07:39;;;;;;;19.45;11.48;;;;;;;;;;5021305;28;20041;-84
2023/04/17 14:10:05;;;;;;;13.27;9.35;;;;;;;;;;5013966;28;20022;-83
2023/04/17 14:12:31;;;;;;;19.80;12.07;;;;;;;;;;5013866;28;20026;-83
2023/04/17 14:14:57;;;;;;;18.75;12.07;;;;;;;;;;5026062;28;20033;-83
2023/04/17 14:17:41;;;;;;;18.55;13.00;;;;;;;;;;5035575;28;20041;-83
2023/04/17 14:20:13;;;;;;;19.58;12.52;;;;;;;;;;5034001;28;20037;-83
2023/04/17 14:22:39;;;;;;;20.83;13.30;;;;;;;;;;5035046;28;20021;-83
2023/04/17 14:25:06;;;;;;;16.95;10.32;;;;;;;;;;5029344;28;20036;-83
2023/04/17 14:27:34;;;;;;;16.75;11.50;;;;;;;;;;5035905;28;20365;-83
2023/04/17 14:30:00;;;;;;;18.77;12.48;;;;;;;;;;5032475;28;20027;-83
2023/04/17 14:32:26;;;;;;;19.58;12.48;;;;;;;;;;5034891;28;20468;-83
2023/04/17 14:34:53;;;;;;;19.75;11.95;;;;;;;;;;5034085;28;20037;-83